Details From TNCB - Bonaire Flamingo
To SVBM - BARQUISIMETO INTL
Flight Number -
Tags generated
Created
Modified
Stats Distance 142 nm / 263 km
Max Altitude 8,300 ft / 2,530 m
Waypoints 3
Social Downloads 3
Likes 0
Share

Download

Looking for another format? Having issues loading an existing format? Contact us
Advertisement - Login to hide

Notes

Basic altitude profile: - Ascent Rate: 2500ft/min - Ascent Speed: 250kts - Cruise Altitude: 35000ft - Cruise Speed: 420kts - Descent Rate: 1500ft/min - Descent Speed: 250kts Options: - Use NATs: no - Use PACOTS: no - Use low airways: yes - Use high airways: no

Route

TNCB LIXIL SVBM

ID Type Via Altitude (ft/m) Position (lat/lon) Dist (leg/tot) Name
O TNCB APT - 0 / 0 12.13105 / -68.26851 - / 0 nm Bonaire Flamingo
LIXIL FIX - 8,300 / 2,530 10.54975 / -68.95036 103 / 103 nm
O SVBM APT - 0 / 0 10.04235 / -69.35886 38 / 141 nm BARQUISIMETO INTL

Altitude Profile

Advertisement - Login to hide

TNCB

Details ICAO TNCB (BON)
Name Bonaire Flamingo
Region Caribbean Netherlands, Aruba, Curaçao, Sint Maarten
Timezone America/Curacao (UTC-4.0)
Stats Elevation 20 ft / 6 m (AMSL)
Location 12.131000° -68.268500°
Runways 1
Magnetic Variation 11.964° W

METAR

TNCB 192155Z 09015KT 060V120 9999 SCT016 30/25 Q1005

Decode

TAF

TAF TAF TNCB 191722Z 1918/2024 09012KT 9999 SCT018 PROB40 TEMPO 2008/2018 4000 SHRA SCT012 SCT018CB

Decode

Departure Runways

ID Width Length Bearing (true/mag) Surface Threshold Overrun Markings Lighting
10 148 ft / 45 m 9,451 ft / 2,881 m 91.75° / 103.71° ASPHALT 0 ft / 0 m 0 ft / 0 m APP EDGE THRESHOLD SSALF
28 148 ft / 45 m 9,451 ft / 2,881 m 271.75° / 283.72° ASPHALT 0 ft / 0 m 200 ft / 61 m APP EDGE THRESHOLD

SVBM

Details ICAO SVBM (BRM)
Name BARQUISIMETO INTL
Region Venezuela
Timezone America/Caracas (UTC-4.0)
Stats Elevation 2,042 ft / 622 m (AMSL)
Location 10.042300° -69.358900°
Runways 1
Magnetic Variation 11.220° W

METAR

SVBM 192202Z AUTO 14012KT NCD 23/17 Q1008

Decode

TAF

TAF TAF SVBM 191057Z 1912/2012 10007KT 9999 BR FEW013 SCT070 TX33/1918Z TN22/2008Z BECMG 1914/1918 09010KT 7000 VCTSDZ FEW013CB BKN070

Decode

Destination Runways

ID Width Length Bearing (true/mag) Surface Threshold Overrun Markings Lighting
09 147 ft / 45 m 9,428 ft / 2,874 m 80.91° / 92.13° ASPHALT 0 ft / 0 m 0 ft / 0 m APP EDGE THRESHOLD ALSF-I
27 147 ft / 45 m 9,428 ft / 2,874 m 260.91° / 272.13° ASPHALT 1,541 ft / 470 m 315 ft / 96 m APP EDGE THRESHOLD

Popular Alternatives